createdAt,value
2023-05-22T00:00:03.834Z,40.09
2023-05-22T00:01:04.887Z,40.14
2023-05-22T00:02:05.037Z,40.19
2023-05-22T00:03:05.216Z,40.16
2023-05-22T00:04:05.250Z,40.19
2023-05-22T00:05:04.404Z,40.19
2023-05-22T00:06:05.318Z,40.18
2023-05-22T00:07:05.284Z,40.17
2023-05-22T00:08:05.342Z,40.17
2023-05-22T00:09:05.709Z,40.16
2023-05-22T00:10:05.492Z,40.16
2023-05-22T00:11:04.617Z,40.19
2023-05-22T00:12:04.601Z,40.16
2023-05-22T00:13:05.653Z,40.19
2023-05-22T00:14:05.778Z,40.19
2023-05-22T00:15:05.909Z,40.22
2023-05-22T00:16:04.882Z,40.13
2023-05-22T00:17:06.024Z,40.14
2023-05-22T00:18:06.172Z,40.16
2023-05-22T00:19:05.115Z,40.17
2023-05-22T00:20:06.279Z,40.14
2023-05-22T00:21:06.161Z,40.19
2023-05-22T00:22:05.442Z,40.19
2023-05-22T00:23:06.417Z,40.16
2023-05-22T00:24:05.338Z,40.17
2023-05-22T00:25:06.494Z,40.17
2023-05-22T00:26:05.632Z,40.20
2023-05-22T00:27:06.597Z,40.19
2023-05-22T00:28:05.623Z,40.14
2023-05-22T00:29:05.724Z,40.16
2023-05-22T00:30:05.994Z,40.19
2023-05-22T00:31:05.751Z,40.16
2023-05-22T00:32:05.957Z,40.12
2023-05-22T00:33:07.040Z,40.15
2023-05-22T00:34:06.196Z,40.18
2023-05-22T00:35:07.012Z,40.20
2023-05-22T00:36:07.053Z,40.19
2023-05-22T00:37:07.134Z,40.17
2023-05-22T00:38:06.422Z,40.17
2023-05-22T00:39:06.266Z,40.18
2023-05-22T00:40:07.333Z,40.17
2023-05-22T00:41:06.414Z,40.21
2023-05-22T00:42:07.632Z,40.16
2023-05-22T00:43:06.490Z,40.16
2023-05-22T00:44:06.679Z,40.11
2023-05-22T00:45:07.642Z,40.14
2023-05-22T00:46:06.783Z,40.14
2023-05-22T00:47:07.759Z,40.15
2023-05-22T00:48:08.006Z,40.15
2023-05-22T00:49:06.916Z,40.18
2023-05-22T00:50:07.092Z,40.14
2023-05-22T00:51:08.324Z,40.18
2023-05-22T00:52:07.038Z,40.17
2023-05-22T00:53:07.094Z,40.17
2023-05-22T00:54:08.149Z,40.18
2023-05-22T00:55:07.211Z,40.15
2023-05-22T00:56:08.296Z,40.17
2023-05-22T00:57:08.390Z,40.18
2023-05-22T00:58:08.600Z,40.17
2023-05-22T00:59:07.642Z,40.18
2023-05-22T01:00:07.515Z,40.18
2023-05-22T01:01:08.621Z,40.15
2023-05-22T01:02:07.882Z,40.19
2023-05-22T01:03:08.048Z,40.18
2023-05-22T01:04:07.988Z,40.16
2023-05-22T01:05:08.968Z,40.18
2023-05-22T01:06:08.047Z,40.19
2023-05-22T01:07:08.138Z,40.18
2023-05-22T01:08:09.280Z,40.17
2023-05-22T01:09:09.169Z,40.18
2023-05-22T01:10:08.290Z,40.15
2023-05-22T01:11:08.342Z,40.16
2023-05-22T01:12:08.509Z,40.18
2023-05-22T01:13:09.360Z,40.16
2023-05-22T01:14:08.331Z,40.15
2023-05-22T01:15:08.400Z,40.19
2023-05-22T01:16:08.474Z,40.16
2023-05-22T01:17:08.563Z,40.13
2023-05-22T01:18:08.779Z,40.17
2023-05-22T01:19:08.910Z,40.18
2023-05-22T01:20:08.830Z,40.15
2023-05-22T01:21:08.896Z,40.13
2023-05-22T01:22:08.996Z,40.19
2023-05-22T01:23:10.072Z,40.13
2023-05-22T01:24:09.042Z,40.11
2023-05-22T01:25:09.974Z,40.18
2023-05-22T01:26:09.063Z,40.13
2023-05-22T01:27:10.195Z,40.15
2023-05-22T01:28:09.272Z,40.16
2023-05-22T01:29:09.239Z,40.18
2023-05-22T01:30:10.395Z,40.11
2023-05-22T01:31:09.309Z,40.16
2023-05-22T01:32:09.444Z,40.10
2023-05-22T01:33:10.606Z,40.19
2023-05-22T01:34:09.573Z,40.13
2023-05-22T01:35:10.670Z,40.16
2023-05-22T01:36:09.596Z,40.13
2023-05-22T01:37:10.953Z,40.18
2023-05-22T01:38:10.710Z,40.08
2023-05-22T01:39:10.801Z,40.17
2023-05-22T01:40:09.828Z,40.14
2023-05-22T01:41:10.840Z,40.19
2023-05-22T01:42:09.830Z,40.14
2023-05-22T01:43:10.193Z,40.18
2023-05-22T01:44:11.047Z,40.19
2023-05-22T01:45:10.105Z,40.12
2023-05-22T01:46:11.136Z,40.14
2023-05-22T01:47:10.081Z,40.13
2023-05-22T01:48:11.165Z,40.13
2023-05-22T01:49:10.311Z,40.07
2023-05-22T01:50:11.319Z,40.14
2023-05-22T01:51:11.137Z,40.17
2023-05-22T01:52:10.243Z,40.14
2023-05-22T01:53:11.544Z,40.12
2023-05-22T01:54:10.304Z,40.20
2023-05-22T01:55:11.299Z,40.15
2023-05-22T01:56:10.507Z,40.14
2023-05-22T01:57:11.324Z,40.13
2023-05-22T01:58:10.507Z,40.13
2023-05-22T01:59:10.629Z,40.14
2023-05-22T02:00:10.398Z,40.19
2023-05-22T02:01:11.477Z,40.11
2023-05-22T02:02:11.511Z,40.12
2023-05-22T02:03:11.782Z,40.07
2023-05-22T02:04:11.605Z,40.15
2023-05-22T02:05:11.646Z,40.10
2023-05-22T02:06:11.668Z,40.15
2023-05-22T02:07:12.337Z,40.10
2023-05-22T02:08:11.757Z,40.11
2023-05-22T02:09:10.881Z,40.10
2023-05-22T02:10:11.869Z,40.16
2023-05-22T02:11:11.933Z,40.13
2023-05-22T02:12:11.972Z,40.10
2023-05-22T02:13:12.018Z,40.07
2023-05-22T02:14:12.091Z,40.10
2023-05-22T02:15:11.109Z,40.14
2023-05-22T02:16:11.204Z,40.14
2023-05-22T02:17:12.355Z,40.13
2023-05-22T02:18:12.340Z,40.08
2023-05-22T02:19:11.326Z,40.11
2023-05-22T02:20:11.324Z,40.13
2023-05-22T02:21:11.374Z,40.11
2023-05-22T02:22:12.384Z,40.08
2023-05-22T02:23:11.421Z,40.12
2023-05-22T02:24:12.473Z,40.14
2023-05-22T02:25:12.488Z,40.12
2023-05-22T02:26:11.517Z,40.12
2023-05-22T02:27:12.519Z,40.09
2023-05-22T02:28:12.565Z,40.12
2023-05-22T02:29:12.617Z,40.08
2023-05-22T02:30:12.641Z,40.11
2023-05-22T02:31:11.726Z,40.08
2023-05-22T02:32:13.418Z,40.11
2023-05-22T02:33:12.742Z,40.08
2023-05-22T02:34:11.721Z,40.11
2023-05-22T02:35:12.776Z,40.12
2023-05-22T02:36:12.795Z,40.12
2023-05-22T02:37:11.814Z,40.08
2023-05-22T02:38:12.910Z,40.09
2023-05-22T02:39:11.837Z,40.10
2023-05-22T02:40:12.873Z,40.12
2023-05-22T02:41:12.879Z,40.08
2023-05-22T02:42:12.896Z,40.09
2023-05-22T02:43:12.924Z,40.11
2023-05-22T02:44:12.934Z,40.07
2023-05-22T02:45:12.977Z,40.10
2023-05-22T02:46:12.978Z,40.11
2023-05-22T02:47:12.961Z,40.11
2023-05-22T02:48:11.996Z,40.08
2023-05-22T02:49:13.010Z,40.09
2023-05-22T02:50:11.996Z,40.12
2023-05-22T02:51:12.016Z,40.08
2023-05-22T02:52:12.004Z,40.08
2023-05-22T02:53:13.035Z,40.07
2023-05-22T02:54:13.029Z,40.12
2023-05-22T02:55:13.016Z,40.09
2023-05-22T02:56:12.044Z,40.08
2023-05-22T02:57:13.021Z,40.09
2023-05-22T02:58:12.040Z,40.05
2023-05-22T02:59:12.036Z,40.14
2023-05-22T03:00:13.044Z,40.08
2023-05-22T03:01:12.077Z,40.08
2023-05-22T03:02:13.033Z,40.11
2023-05-22T03:03:12.179Z,40.06
2023-05-22T03:04:13.216Z,40.08
2023-05-22T03:05:13.124Z,40.03
2023-05-22T03:06:12.123Z,40.05
2023-05-22T03:07:13.112Z,39.99
2023-05-22T03:08:13.147Z,40.01
2023-05-22T03:09:13.148Z,40.09
2023-05-22T03:10:12.171Z,40.05
2023-05-22T03:11:13.176Z,40.04
2023-05-22T03:12:13.177Z,40.06
2023-05-22T03:13:13.174Z,40.09
2023-05-22T03:14:12.188Z,40.03
2023-05-22T03:15:13.175Z,40.07
2023-05-22T03:16:13.248Z,40.05
2023-05-22T03:17:13.917Z,40.07
2023-05-22T03:18:13.293Z,40.03
2023-05-22T03:19:13.338Z,40.02
2023-05-22T03:20:13.297Z,40.02
2023-05-22T03:21:13.393Z,40.05
2023-05-22T03:22:13.321Z,40.03
2023-05-22T03:23:12.354Z,40.09
2023-05-22T03:24:12.360Z,40.03
2023-05-22T03:25:13.379Z,40.05
2023-05-22T03:26:12.396Z,40.01
2023-05-22T03:27:13.409Z,40.05
2023-05-22T03:28:13.399Z,40.08
2023-05-22T03:29:13.472Z,40.03
2023-05-22T03:30:12.462Z,40.03
2023-05-22T03:31:12.453Z,40.06
2023-05-22T03:32:13.450Z,40.02
2023-05-22T03:33:12.490Z,40.07
2023-05-22T03:34:13.444Z,39.99
2023-05-22T03:35:12.482Z,40.02
2023-05-22T03:36:13.439Z,40.03
2023-05-22T03:37:13.570Z,40.06
2023-05-22T03:38:13.492Z,40.06
2023-05-22T03:39:13.512Z,40.03
2023-05-22T03:40:12.551Z,40.06
2023-05-22T03:41:13.634Z,40.04
2023-05-22T03:42:12.617Z,40.03
2023-05-22T03:43:12.638Z,39.99
2023-05-22T03:44:13.633Z,40.04
2023-05-22T03:45:13.626Z,40.04
2023-05-22T03:46:12.702Z,40.02
2023-05-22T03:47:13.669Z,40.03
2023-05-22T03:48:12.783Z,40.03
2023-05-22T03:49:12.682Z,40.03
2023-05-22T03:50:13.643Z,40.06
2023-05-22T03:51:12.636Z,40.03
2023-05-22T03:52:13.675Z,39.97
2023-05-22T03:53:13.701Z,40.03
2023-05-22T03:54:12.625Z,39.99
2023-05-22T03:55:13.635Z,40.00
2023-05-22T03:56:12.606Z,40.02
2023-05-22T03:57:13.621Z,39.97
2023-05-22T03:58:12.637Z,39.97
2023-05-22T03:59:12.649Z,39.99
2023-05-22T04:00:12.656Z,39.97
2023-05-22T04:01:12.615Z,40.01
2023-05-22T04:02:12.649Z,40.00
2023-05-22T04:03:13.816Z,39.99
2023-05-22T04:04:12.628Z,39.93
2023-05-22T04:05:12.684Z,40.00
2023-05-22T04:06:12.632Z,40.01
2023-05-22T04:07:12.646Z,40.00
2023-05-22T04:08:13.623Z,39.94
2023-05-22T04:09:12.758Z,39.97
2023-05-22T04:10:13.654Z,39.96
2023-05-22T04:11:12.640Z,40.00
2023-05-22T04:12:12.633Z,39.96
2023-05-22T04:13:13.655Z,39.99
2023-05-22T04:14:13.662Z,39.93
2023-05-22T04:15:13.678Z,39.96
2023-05-22T04:16:13.802Z,39.94
2023-05-22T04:17:12.682Z,39.96
2023-05-22T04:18:13.695Z,39.99
2023-05-22T04:19:13.809Z,39.94
2023-05-22T04:20:12.704Z,39.93
2023-05-22T04:21:13.696Z,39.94
2023-05-22T04:22:12.698Z,39.92
2023-05-22T04:23:13.687Z,39.90
2023-05-22T04:24:13.694Z,39.93
2023-05-22T04:25:13.737Z,39.93
2023-05-22T04:26:12.716Z,39.91
2023-05-22T04:27:12.703Z,39.90
2023-05-22T04:28:12.699Z,39.90
2023-05-22T04:29:13.699Z,39.95
2023-05-22T04:30:13.712Z,39.87
2023-05-22T04:31:13.783Z,39.89
2023-05-22T04:32:13.736Z,39.89
2023-05-22T04:33:13.860Z,39.90
2023-05-22T04:34:12.831Z,39.90
2023-05-22T04:35:12.784Z,39.85
2023-05-22T04:36:12.799Z,39.85
2023-05-22T04:37:13.764Z,39.82
2023-05-22T04:38:13.759Z,39.90
2023-05-22T04:39:13.750Z,39.92
2023-05-22T04:40:13.775Z,39.85
2023-05-22T04:41:13.794Z,39.85
2023-05-22T04:42:12.794Z,39.85
2023-05-22T04:43:13.798Z,39.86
2023-05-22T04:44:12.827Z,39.85
2023-05-22T04:45:12.837Z,39.85
2023-05-22T04:46:12.812Z,39.84
2023-05-22T04:47:13.818Z,39.81
2023-05-22T04:48:13.819Z,39.82
2023-05-22T04:49:13.813Z,39.87
2023-05-22T04:50:13.822Z,39.82
2023-05-22T04:51:13.830Z,39.84
2023-05-22T04:52:12.831Z,39.85
2023-05-22T04:53:13.846Z,39.84
2023-05-22T04:54:13.842Z,39.78
2023-05-22T04:55:13.847Z,39.77
2023-05-22T04:56:18.624Z,39.84
2023-05-22T04:57:13.890Z,39.75
2023-05-22T04:58:13.838Z,39.78
2023-05-22T04:59:13.822Z,39.78
2023-05-22T05:00:13.817Z,39.81
2023-05-22T05:01:12.875Z,39.77
2023-05-22T05:02:13.828Z,39.75
2023-05-22T05:03:12.917Z,39.74
2023-05-22T05:04:12.841Z,39.80
2023-05-22T05:05:13.798Z,39.81
2023-05-22T05:06:12.780Z,39.75
2023-05-22T05:07:13.806Z,39.75
2023-05-22T05:08:13.764Z,39.78
2023-05-22T05:09:13.771Z,39.70
2023-05-22T05:10:12.754Z,39.72
2023-05-22T05:11:12.763Z,39.76
2023-05-22T05:12:13.765Z,39.74
2023-05-22T05:13:12.882Z,39.77
2023-05-22T05:14:12.735Z,39.70
2023-05-22T05:15:13.732Z,39.73
2023-05-22T05:16:12.756Z,39.71
2023-05-22T05:17:12.705Z,39.76
2023-05-22T05:18:13.851Z,39.70
2023-05-22T05:19:12.779Z,39.67
2023-05-22T05:20:13.690Z,39.76
2023-05-22T05:21:12.682Z,39.70
2023-05-22T05:22:13.683Z,39.68
2023-05-22T05:23:13.655Z,39.69
2023-05-22T05:24:13.664Z,39.71
2023-05-22T05:25:13.675Z,39.73
2023-05-22T05:26:12.640Z,39.67
2023-05-22T05:27:12.640Z,39.69
2023-05-22T05:28:12.644Z,39.66
2023-05-22T05:29:13.795Z,39.69
2023-05-22T05:30:12.637Z,39.68
2023-05-22T05:31:12.615Z,39.70
2023-05-22T05:32:13.686Z,39.65
2023-05-22T05:33:12.637Z,39.72
2023-05-22T05:34:12.594Z,39.69
2023-05-22T05:35:13.600Z,39.68
2023-05-22T05:36:12.605Z,39.67
2023-05-22T05:37:12.575Z,39.65
2023-05-22T05:38:12.569Z,39.62
2023-05-22T05:39:13.564Z,39.66
2023-05-22T05:40:13.592Z,39.66
2023-05-22T05:41:13.565Z,39.68
2023-05-22T05:42:13.538Z,39.69
2023-05-22T05:43:13.528Z,39.64
2023-05-22T05:48:13.517Z,39.65
2023-05-22T05:49:13.484Z,39.69
2023-05-22T05:50:12.502Z,39.62
2023-05-22T05:51:13.506Z,39.65
2023-05-22T05:52:13.473Z,39.74
2023-05-22T05:53:13.459Z,39.65
2023-05-22T05:54:13.483Z,39.65
2023-05-22T05:55:13.465Z,39.66
2023-05-22T05:56:13.444Z,39.68
2023-05-22T05:57:12.438Z,39.70
2023-05-22T05:58:13.431Z,39.69
2023-05-22T05:59:13.438Z,39.74
2023-05-22T06:00:13.457Z,39.63
2023-05-22T06:01:13.417Z,39.67
2023-05-22T06:02:12.517Z,39.81
2023-05-22T06:03:13.548Z,40.04
2023-05-22T06:04:13.451Z,39.98
2023-05-22T06:05:12.405Z,39.83
2023-05-22T06:06:13.398Z,39.95
2023-05-22T06:07:12.379Z,39.80
2023-05-22T06:08:13.478Z,39.76
2023-05-22T06:09:13.425Z,39.81
2023-05-22T06:10:13.397Z,39.76
2023-05-22T06:11:13.353Z,39.86
2023-05-22T06:12:13.328Z,39.91
2023-05-22T06:13:13.337Z,39.93
2023-05-22T06:14:12.325Z,39.92
2023-05-22T06:15:12.319Z,39.99
2023-05-22T06:16:12.346Z,40.00
2023-05-22T06:17:12.296Z,39.98
2023-05-22T06:18:13.429Z,40.04
2023-05-22T06:19:13.359Z,40.03
2023-05-22T06:20:12.298Z,39.97
2023-05-22T06:21:13.279Z,40.07
2023-05-22T06:22:13.280Z,40.11
2023-05-22T06:23:13.349Z,40.03
2023-05-22T06:24:13.383Z,40.02
2023-05-22T06:25:12.431Z,40.02
2023-05-22T06:26:13.494Z,40.04
2023-05-22T06:27:12.540Z,40.01
2023-05-22T06:28:12.611Z,39.96
2023-05-22T06:29:12.679Z,40.02
2023-05-22T06:30:12.773Z,40.05
2023-05-22T06:31:13.801Z,40.11
2023-05-22T06:32:12.885Z,40.09
2023-05-22T06:33:13.040Z,40.17
2023-05-22T06:34:14.028Z,40.14
2023-05-22T06:35:14.088Z,40.17
2023-05-22T06:36:14.162Z,40.44
2023-05-22T06:37:13.166Z,40.42
2023-05-22T06:38:14.241Z,40.39
2023-05-22T06:39:13.294Z,40.33
2023-05-22T06:40:14.361Z,40.44
2023-05-22T06:41:14.422Z,40.36
2023-05-22T06:42:14.438Z,40.36
2023-05-22T06:43:13.496Z,40.42
2023-05-22T06:44:13.578Z,40.61
2023-05-22T06:45:14.694Z,40.53
2023-05-22T06:46:13.791Z,40.64
2023-05-22T06:47:14.758Z,40.78
2023-05-22T06:48:13.796Z,40.93
2023-05-22T06:49:14.848Z,40.87
2023-05-22T06:50:13.923Z,40.64
2023-05-22T06:51:14.021Z,40.62
2023-05-22T06:52:14.023Z,40.72
2023-05-22T06:53:15.149Z,40.93
2023-05-22T06:54:15.161Z,40.70
2023-05-22T06:55:15.177Z,41.23
2023-05-22T06:56:14.555Z,41.02
2023-05-22T06:57:15.510Z,41.44
2023-05-22T06:58:15.334Z,41.36
2023-05-22T06:59:14.381Z,41.52
2023-05-22T07:00:15.428Z,41.24
2023-05-22T07:01:15.505Z,41.14
2023-05-22T07:02:14.513Z,41.21
2023-05-22T07:03:15.558Z,41.24
2023-05-22T07:04:15.609Z,41.61
2023-05-22T07:05:14.641Z,41.45
2023-05-22T07:06:14.763Z,41.36
2023-05-22T07:07:15.899Z,41.18
2023-05-22T07:08:14.729Z,41.39
2023-05-22T07:09:14.784Z,41.44
2023-05-22T07:10:15.833Z,41.49
2023-05-22T07:11:14.852Z,41.69
2023-05-22T07:12:15.932Z,41.48
2023-05-22T07:13:15.933Z,41.51
2023-05-22T07:14:15.973Z,41.66
2023-05-22T07:15:16.004Z,41.73
2023-05-22T07:16:16.126Z,41.70
2023-05-22T07:17:16.093Z,41.68
2023-05-22T07:18:16.132Z,42.12
2023-05-22T07:19:15.176Z,42.02
2023-05-22T07:20:15.259Z,41.87
2023-05-22T07:21:16.253Z,42.55
2023-05-22T07:22:16.287Z,42.11
2023-05-22T07:23:16.338Z,42.06
2023-05-22T07:24:16.342Z,42.00
2023-05-22T07:25:15.375Z,42.05
2023-05-22T07:26:16.411Z,42.25
2023-05-22T07:27:16.437Z,42.24
2023-05-22T07:28:16.488Z,42.27
2023-05-22T07:29:15.495Z,42.51
2023-05-22T07:30:16.529Z,42.52
2023-05-22T07:31:16.604Z,42.50
2023-05-22T07:32:16.644Z,42.40
2023-05-22T07:33:15.623Z,42.47
2023-05-22T07:34:15.661Z,42.52
2023-05-22T07:35:16.688Z,42.53
2023-05-22T07:36:16.715Z,42.63
2023-05-22T07:37:15.783Z,42.74
2023-05-22T07:38:16.866Z,42.83
2023-05-22T07:39:16.844Z,42.98
2023-05-22T07:40:16.856Z,42.95
2023-05-22T07:41:16.864Z,42.54
2023-05-22T07:42:15.907Z,42.98
2023-05-22T07:43:16.929Z,43.22
2023-05-22T07:44:16.988Z,43.10
2023-05-22T07:45:16.999Z,43.21
2023-05-22T07:46:17.068Z,43.29
2023-05-22T07:47:17.027Z,43.14
2023-05-22T07:48:17.101Z,43.13
2023-05-22T07:49:17.104Z,43.03
2023-05-22T07:50:17.090Z,42.96
2023-05-22T07:51:17.118Z,42.93
2023-05-22T07:52:17.540Z,42.93
2023-05-22T07:53:17.172Z,42.96
2023-05-22T07:54:17.216Z,42.84
2023-05-22T07:55:17.643Z,43.07
2023-05-22T07:56:17.264Z,43.17
2023-05-22T07:57:16.292Z,43.27
2023-05-22T07:58:17.324Z,43.59
2023-05-22T07:59:17.361Z,43.64
2023-05-22T08:00:17.387Z,43.63
2023-05-22T08:01:16.433Z,43.72
2023-05-22T08:02:16.482Z,43.66
2023-05-22T08:03:18.004Z,43.68
2023-05-22T08:04:16.797Z,43.30
2023-05-22T08:05:16.554Z,43.49
2023-05-22T08:06:17.571Z,43.41
2023-05-22T08:07:16.597Z,43.24
2023-05-22T08:08:17.632Z,43.58
2023-05-22T08:09:16.661Z,43.58
2023-05-22T08:10:16.697Z,43.64
2023-05-22T08:11:17.919Z,43.59
2023-05-22T08:12:17.807Z,43.67
2023-05-22T08:13:16.876Z,43.57
2023-05-22T08:14:16.858Z,43.56
2023-05-22T08:15:16.885Z,43.52
2023-05-22T08:16:17.927Z,43.56
2023-05-22T08:17:18.032Z,43.59
2023-05-22T08:18:18.010Z,43.44
2023-05-22T08:19:18.138Z,43.70
2023-05-22T08:20:17.117Z,43.68
2023-05-22T08:21:18.110Z,43.73
2023-05-22T08:22:18.157Z,43.93
2023-05-22T08:23:18.188Z,43.80
2023-05-22T08:24:17.211Z,43.91
2023-05-22T08:25:17.266Z,44.09
2023-05-22T08:26:17.279Z,44.29
2023-05-22T08:27:18.398Z,44.42
2023-05-22T08:28:18.339Z,44.55
2023-05-22T08:29:18.382Z,44.56
2023-05-22T08:30:17.411Z,44.67
2023-05-22T08:31:18.459Z,44.75
2023-05-22T08:32:18.498Z,44.92
2023-05-22T08:33:18.485Z,44.89
2023-05-22T08:34:17.508Z,44.85
2023-05-22T08:35:17.528Z,44.79
2023-05-22T08:36:18.582Z,44.74
2023-05-22T08:37:17.584Z,44.79
2023-05-22T08:38:18.641Z,44.79
2023-05-22T08:39:17.636Z,44.73
2023-05-22T08:40:17.686Z,44.76
2023-05-22T08:41:18.696Z,44.83
2023-05-22T08:42:18.062Z,44.13
2023-05-22T08:43:17.871Z,44.15
2023-05-22T08:44:17.761Z,44.04
2023-05-22T08:45:18.795Z,44.13
2023-05-22T08:46:18.855Z,44.18
2023-05-22T08:47:18.891Z,44.28
2023-05-22T08:48:17.857Z,44.21
2023-05-22T08:49:18.889Z,44.15
2023-05-22T08:50:17.916Z,44.14
2023-05-22T08:51:18.922Z,44.06
2023-05-22T08:52:18.961Z,44.08
2023-05-22T08:53:18.980Z,44.18
2023-05-22T08:54:19.003Z,44.28
2023-05-22T08:55:19.012Z,44.35
2023-05-22T08:56:19.051Z,44.40
2023-05-22T08:57:19.047Z,44.30
2023-05-22T08:58:18.052Z,44.31
2023-05-22T08:59:19.089Z,44.34
2023-05-22T09:00:18.089Z,44.47
2023-05-22T09:01:19.116Z,44.78
2023-05-22T09:02:19.115Z,44.50
2023-05-22T09:03:19.230Z,44.71
2023-05-22T09:04:18.131Z,44.46
2023-05-22T09:05:19.171Z,44.45
2023-05-22T09:06:18.167Z,44.50
2023-05-22T09:07:19.193Z,44.56
2023-05-22T09:08:21.030Z,44.59
2023-05-22T09:09:19.185Z,44.66
2023-05-22T09:10:18.189Z,44.58
2023-05-22T09:11:18.176Z,44.57
2023-05-22T09:12:19.183Z,45.11
2023-05-22T09:13:18.146Z,45.51
2023-05-22T09:14:19.163Z,45.52
2023-05-22T09:15:18.193Z,45.13
2023-05-22T09:16:19.201Z,45.23
2023-05-22T09:17:18.178Z,44.80
2023-05-22T09:18:18.122Z,45.02
2023-05-22T09:19:19.262Z,45.19
2023-05-22T09:20:19.123Z,45.15
2023-05-22T09:21:29.457Z,45.10
2023-05-22T09:22:19.114Z,45.13
2023-05-22T09:23:19.098Z,45.16
2023-05-22T09:24:18.090Z,45.23
2023-05-22T09:25:19.093Z,45.04
2023-05-22T09:26:19.070Z,45.21
2023-05-22T09:27:19.066Z,45.20
2023-05-22T09:28:19.064Z,45.21
2023-05-22T09:29:19.050Z,45.18
2023-05-22T09:30:18.054Z,45.00
2023-05-22T09:31:19.244Z,45.11
2023-05-22T09:32:19.056Z,45.19
2023-05-22T09:33:19.039Z,45.21
2023-05-22T09:34:19.030Z,45.17
2023-05-22T09:35:19.051Z,45.05
2023-05-22T09:36:19.026Z,44.98
2023-05-22T09:37:18.017Z,45.04
2023-05-22T09:38:19.025Z,45.04
2023-05-22T09:39:18.999Z,45.03
2023-05-22T09:40:18.984Z,45.03
2023-05-22T09:41:19.020Z,45.17
2023-05-22T09:42:18.993Z,45.18
2023-05-22T09:43:18.972Z,45.14
2023-05-22T09:44:18.961Z,45.12
2023-05-22T09:45:18.957Z,44.99
2023-05-22T09:46:19.018Z,44.93
2023-05-22T09:47:19.168Z,45.08
2023-05-22T09:48:18.957Z,44.99
2023-05-22T09:49:18.924Z,45.04
2023-05-22T09:50:17.932Z,45.04
2023-05-22T09:51:17.916Z,45.08
2023-05-22T09:52:19.082Z,44.96
2023-05-22T09:53:18.894Z,45.00
2023-05-22T09:54:18.895Z,45.01
2023-05-22T09:55:17.891Z,44.96
2023-05-22T09:56:24.243Z,44.97
2023-05-22T09:57:18.874Z,44.94
2023-05-22T09:58:17.872Z,44.99
2023-05-22T09:59:18.857Z,44.93
2023-05-22T10:00:18.853Z,44.78
2023-05-22T10:01:18.867Z,44.85
2023-05-22T10:02:18.828Z,44.80
2023-05-22T10:03:18.854Z,44.76
2023-05-22T10:04:18.865Z,44.79
2023-05-22T10:05:17.813Z,44.80
2023-05-22T10:06:18.808Z,44.83
2023-05-22T10:07:17.810Z,44.77
2023-05-22T10:08:17.803Z,44.79
2023-05-22T10:09:19.633Z,44.85
2023-05-22T10:10:18.774Z,44.78
2023-05-22T10:11:18.792Z,44.73
2023-05-22T10:12:18.777Z,44.75
2023-05-22T10:13:18.762Z,44.71
2023-05-22T10:14:18.748Z,44.67
2023-05-22T10:15:17.755Z,44.53
2023-05-22T10:16:17.790Z,44.65
2023-05-22T10:17:18.737Z,44.67
2023-05-22T10:18:18.753Z,44.53
2023-05-22T10:19:19.050Z,44.58
2023-05-22T10:20:18.721Z,44.56
2023-05-22T10:21:18.713Z,44.48
2023-05-22T10:22:18.709Z,44.49
2023-05-22T10:23:18.693Z,44.30
2023-05-22T10:24:17.700Z,44.31
2023-05-22T10:25:18.714Z,44.32
2023-05-22T10:26:17.716Z,44.37
2023-05-22T10:27:18.736Z,44.36
2023-05-22T10:28:18.732Z,44.25
2023-05-22T10:29:18.742Z,44.29
2023-05-22T10:30:18.755Z,44.26
2023-05-22T10:31:17.765Z,44.22
2023-05-22T10:32:18.777Z,44.13
2023-05-22T10:33:18.891Z,44.23
2023-05-22T10:34:18.790Z,44.18
2023-05-22T10:35:17.933Z,44.16
2023-05-22T10:36:18.885Z,44.10
2023-05-22T10:37:21.459Z,44.09
2023-05-22T10:38:18.809Z,44.03
2023-05-22T10:39:18.806Z,44.02
2023-05-22T10:40:18.321Z,44.00
2023-05-22T10:41:18.778Z,44.08
2023-05-22T10:42:18.786Z,44.10
2023-05-22T10:43:19.121Z,43.98
2023-05-22T10:44:18.775Z,43.98
2023-05-22T10:45:18.751Z,44.03
2023-05-22T10:46:18.821Z,43.99
2023-05-22T10:47:19.138Z,43.95
2023-05-22T10:48:18.734Z,43.85
2023-05-22T10:49:17.729Z,43.79
2023-05-22T10:50:18.786Z,43.81
2023-05-22T10:51:18.838Z,43.77
2023-05-22T10:52:18.700Z,43.76
2023-05-22T10:53:18.700Z,43.80
2023-05-22T10:54:18.702Z,43.76
2023-05-22T10:55:18.677Z,43.69
2023-05-22T10:56:17.667Z,43.75
2023-05-22T10:57:18.700Z,43.69
2023-05-22T10:58:18.673Z,43.71
2023-05-22T10:59:18.664Z,43.73
2023-05-22T11:00:18.669Z,43.69
2023-05-22T11:01:18.673Z,43.69
2023-05-22T11:02:17.853Z,43.66
2023-05-22T11:03:18.788Z,43.68
2023-05-22T11:04:18.706Z,43.68
2023-05-22T11:05:17.628Z,43.56
2023-05-22T11:06:18.603Z,43.60
2023-05-22T11:07:17.744Z,43.59
2023-05-22T11:08:19.505Z,43.57
2023-05-22T11:09:18.592Z,43.55
2023-05-22T11:10:18.577Z,43.52
2023-05-22T11:11:17.583Z,43.53
2023-05-22T11:12:17.690Z,43.50
2023-05-22T11:13:18.574Z,43.43
2023-05-22T11:14:17.568Z,43.42
2023-05-22T11:15:17.568Z,43.42
2023-05-22T11:16:17.560Z,43.39
2023-05-22T11:17:18.592Z,43.38
2023-05-22T11:18:17.554Z,43.30
2023-05-22T11:20:17.601Z,43.20
2023-05-22T11:21:17.528Z,43.26
2023-05-22T11:22:18.523Z,43.24
2023-05-22T11:23:17.649Z,43.24
2023-05-22T11:24:18.547Z,43.23
2023-05-22T11:25:18.518Z,43.23
2023-05-22T11:26:17.500Z,43.23
2023-05-22T11:27:17.487Z,43.18
2023-05-22T11:28:18.482Z,43.18
2023-05-22T11:29:17.461Z,43.15
2023-05-22T11:30:18.447Z,43.12
2023-05-22T11:31:18.597Z,43.13
2023-05-22T11:32:18.443Z,43.09
2023-05-22T11:33:18.480Z,43.09
2023-05-22T11:34:18.460Z,43.02
2023-05-22T11:35:18.449Z,43.02
2023-05-22T11:36:18.430Z,42.96
2023-05-22T11:37:17.432Z,42.98
2023-05-22T11:38:18.619Z,42.94
2023-05-22T11:39:17.589Z,42.88
2023-05-22T11:40:17.853Z,42.86
2023-05-22T11:41:18.386Z,42.87
2023-05-22T11:42:18.404Z,42.83
2023-05-22T11:43:17.377Z,42.81
2023-05-22T11:44:17.394Z,42.77
2023-05-22T11:45:18.368Z,42.75
2023-05-22T11:46:18.377Z,42.72
2023-05-22T11:47:18.387Z,42.67
2023-05-22T11:48:17.366Z,42.67
2023-05-22T11:49:18.350Z,42.70
2023-05-22T11:50:29.395Z,42.66
2023-05-22T11:51:18.336Z,42.60
2023-05-22T11:52:17.335Z,42.57
2023-05-22T11:53:18.308Z,42.67
2023-05-22T11:54:17.321Z,42.60
2023-05-22T11:55:18.435Z,42.59
2023-05-22T11:56:18.284Z,42.60
2023-05-22T11:57:17.289Z,42.60
2023-05-22T11:58:17.274Z,42.53
2023-05-22T11:59:18.277Z,42.52
2023-05-22T12:00:18.341Z,42.53
2023-05-22T12:01:18.248Z,42.52
2023-05-22T12:02:17.254Z,42.49
2023-05-22T12:03:18.261Z,42.46
2023-05-22T12:04:18.300Z,42.44
2023-05-22T12:05:17.213Z,42.42
2023-05-22T12:06:18.240Z,42.43
2023-05-22T12:07:18.224Z,42.38
2023-05-22T12:08:18.204Z,42.38
2023-05-22T12:09:18.306Z,42.32
2023-05-22T12:10:17.176Z,42.34
2023-05-22T12:11:18.311Z,42.35
2023-05-22T12:12:19.422Z,42.32
2023-05-22T12:13:17.178Z,42.32
2023-05-22T12:14:18.190Z,42.27
2023-05-22T12:15:17.145Z,42.26
2023-05-22T12:16:17.183Z,42.25
2023-05-22T12:17:18.139Z,42.23
2023-05-22T12:18:18.132Z,42.22
2023-05-22T12:19:18.163Z,42.24
2023-05-22T12:20:18.119Z,42.23
2023-05-22T12:21:18.109Z,42.18
2023-05-22T12:22:17.122Z,42.21
2023-05-22T12:23:17.128Z,42.15
2023-05-22T12:24:18.097Z,42.10
2023-05-22T12:25:18.089Z,42.10
2023-05-22T12:26:17.091Z,42.10
2023-05-22T12:27:21.208Z,42.03
2023-05-22T12:28:17.086Z,42.04
2023-05-22T12:29:17.088Z,41.99
2023-05-22T12:30:17.059Z,42.00
2023-05-22T12:31:18.100Z,42.00
2023-05-22T12:32:17.265Z,41.56
2023-05-22T12:33:17.081Z,41.42
2023-05-22T12:34:18.027Z,41.51
2023-05-22T12:35:18.066Z,41.83
2023-05-22T12:36:18.001Z,41.75
2023-05-22T12:37:18.072Z,41.71
2023-05-22T12:38:17.996Z,41.79
2023-05-22T12:39:18.009Z,41.93
2023-05-22T12:40:16.981Z,41.76
2023-05-22T12:41:17.975Z,41.90
2023-05-22T12:42:16.966Z,42.09
2023-05-22T12:43:18.093Z,42.11
2023-05-22T12:44:17.972Z,41.98
2023-05-22T12:45:18.181Z,41.92
2023-05-22T12:46:17.977Z,41.96
2023-05-22T12:47:16.926Z,41.98
2023-05-22T12:48:16.929Z,42.18
2023-05-22T12:49:17.916Z,42.40
2023-05-22T12:50:17.914Z,42.51
2023-05-22T12:51:19.972Z,42.69
2023-05-22T12:52:17.906Z,42.72
2023-05-22T12:53:17.883Z,42.52
2023-05-22T12:54:17.880Z,42.45
2023-05-22T12:55:16.865Z,42.53
2023-05-22T12:56:17.862Z,42.71
2023-05-22T12:57:16.958Z,42.78